sensor_id;sensor_type;location;lat;lon;timestamp;P1;durP1;ratioP1;P2;durP2;ratioP2
23995;SDS011;12207;50.076;8.848;2024-03-22T00:01:44;363.48;;;79.28;;
23995;SDS011;12207;50.076;8.848;2024-03-22T00:04:13;368.42;;;79.63;;
23995;SDS011;12207;50.076;8.848;2024-03-22T00:06:43;374.00;;;79.13;;
23995;SDS011;12207;50.076;8.848;2024-03-22T00:09:11;350.75;;;76.72;;
23995;SDS011;12207;50.076;8.848;2024-03-22T00:11:41;368.02;;;78.25;;
23995;SDS011;12207;50.076;8.848;2024-03-22T00:14:11;365.58;;;78.72;;
23995;SDS011;12207;50.076;8.848;2024-03-22T00:16:37;352.67;;;76.60;;
23995;SDS011;12207;50.076;8.848;2024-03-22T00:19:03;361.52;;;77.03;;
23995;SDS011;12207;50.076;8.848;2024-03-22T00:21:30;358.10;;;77.30;;
23995;SDS011;12207;50.076;8.848;2024-03-22T00:23:56;356.88;;;77.45;;
23995;SDS011;12207;50.076;8.848;2024-03-22T00:26:22;373.92;;;79.53;;
23995;SDS011;12207;50.076;8.848;2024-03-22T00:28:49;369.25;;;78.10;;
23995;SDS011;12207;50.076;8.848;2024-03-22T00:31:15;362.98;;;77.93;;
23995;SDS011;12207;50.076;8.848;2024-03-22T00:33:42;360.05;;;78.07;;
23995;SDS011;12207;50.076;8.848;2024-03-22T00:36:08;359.23;;;77.38;;
23995;SDS011;12207;50.076;8.848;2024-03-22T00:38:34;366.42;;;78.65;;
23995;SDS011;12207;50.076;8.848;2024-03-22T00:41:00;388.92;;;84.45;;
23995;SDS011;12207;50.076;8.848;2024-03-22T00:43:27;378.33;;;79.05;;
23995;SDS011;12207;50.076;8.848;2024-03-22T00:45:53;359.48;;;77.78;;
23995;SDS011;12207;50.076;8.848;2024-03-22T00:48:23;351.73;;;76.30;;
23995;SDS011;12207;50.076;8.848;2024-03-22T00:50:49;366.98;;;77.47;;
23995;SDS011;12207;50.076;8.848;2024-03-22T00:53:15;358.00;;;77.65;;
23995;SDS011;12207;50.076;8.848;2024-03-22T00:55:41;376.73;;;78.50;;
23995;SDS011;12207;50.076;8.848;2024-03-22T00:58:07;378.52;;;78.40;;
23995;SDS011;12207;50.076;8.848;2024-03-22T01:00:34;359.75;;;77.45;;
23995;SDS011;12207;50.076;8.848;2024-03-22T01:03:01;364.20;;;78.30;;
23995;SDS011;12207;50.076;8.848;2024-03-22T01:05:27;372.75;;;78.88;;
23995;SDS011;12207;50.076;8.848;2024-03-22T01:07:54;383.25;;;79.68;;
23995;SDS011;12207;50.076;8.848;2024-03-22T01:10:20;356.42;;;77.47;;
23995;SDS011;12207;50.076;8.848;2024-03-22T01:12:46;360.70;;;77.00;;
23995;SDS011;12207;50.076;8.848;2024-03-22T01:15:12;368.45;;;78.03;;
23995;SDS011;12207;50.076;8.848;2024-03-22T01:17:41;366.58;;;78.20;;
23995;SDS011;12207;50.076;8.848;2024-03-22T01:20:07;369.30;;;78.18;;
23995;SDS011;12207;50.076;8.848;2024-03-22T01:22:36;358.20;;;76.70;;
23995;SDS011;12207;50.076;8.848;2024-03-22T01:25:05;356.75;;;77.00;;
23995;SDS011;12207;50.076;8.848;2024-03-22T01:27:32;373.63;;;79.13;;
23995;SDS011;12207;50.076;8.848;2024-03-22T01:29:58;365.58;;;77.75;;
23995;SDS011;12207;50.076;8.848;2024-03-22T01:32:24;366.30;;;78.43;;
23995;SDS011;12207;50.076;8.848;2024-03-22T01:34:50;356.58;;;77.20;;
23995;SDS011;12207;50.076;8.848;2024-03-22T01:37:17;366.80;;;78.97;;
23995;SDS011;12207;50.076;8.848;2024-03-22T01:39:43;362.27;;;78.13;;
23995;SDS011;12207;50.076;8.848;2024-03-22T01:42:09;352.83;;;76.40;;
23995;SDS011;12207;50.076;8.848;2024-03-22T01:44:35;363.52;;;77.70;;
23995;SDS011;12207;50.076;8.848;2024-03-22T01:47:01;346.70;;;75.80;;
23995;SDS011;12207;50.076;8.848;2024-03-22T01:49:28;364.17;;;77.25;;
23995;SDS011;12207;50.076;8.848;2024-03-22T01:51:55;375.00;;;79.15;;
23995;SDS011;12207;50.076;8.848;2024-03-22T01:54:21;350.27;;;75.72;;
23995;SDS011;12207;50.076;8.848;2024-03-22T01:56:47;348.55;;;76.10;;
23995;SDS011;12207;50.076;8.848;2024-03-22T01:59:13;353.20;;;76.20;;
23995;SDS011;12207;50.076;8.848;2024-03-22T02:01:40;358.75;;;76.05;;
23995;SDS011;12207;50.076;8.848;2024-03-22T02:04:09;347.27;;;75.43;;
23995;SDS011;12207;50.076;8.848;2024-03-22T02:06:35;355.10;;;76.18;;
23995;SDS011;12207;50.076;8.848;2024-03-22T02:09:01;353.90;;;75.38;;
23995;SDS011;12207;50.076;8.848;2024-03-22T02:11:30;354.33;;;75.53;;
23995;SDS011;12207;50.076;8.848;2024-03-22T02:13:57;348.77;;;74.82;;
23995;SDS011;12207;50.076;8.848;2024-03-22T02:16:23;353.80;;;76.22;;
23995;SDS011;12207;50.076;8.848;2024-03-22T02:18:49;370.88;;;77.93;;
23995;SDS011;12207;50.076;8.848;2024-03-22T02:21:15;350.10;;;75.50;;
23995;SDS011;12207;50.076;8.848;2024-03-22T02:23:41;356.13;;;75.47;;
23995;SDS011;12207;50.076;8.848;2024-03-22T02:26:07;360.02;;;76.90;;
23995;SDS011;12207;50.076;8.848;2024-03-22T02:28:34;352.40;;;75.45;;
23995;SDS011;12207;50.076;8.848;2024-03-22T02:31:01;354.45;;;75.63;;
23995;SDS011;12207;50.076;8.848;2024-03-22T02:33:28;354.73;;;75.68;;
23995;SDS011;12207;50.076;8.848;2024-03-22T02:35:55;359.27;;;76.75;;
23995;SDS011;12207;50.076;8.848;2024-03-22T02:38:21;337.90;;;73.90;;
23995;SDS011;12207;50.076;8.848;2024-03-22T02:40:48;360.33;;;76.78;;
23995;SDS011;12207;50.076;8.848;2024-03-22T02:43:15;351.27;;;75.03;;
23995;SDS011;12207;50.076;8.848;2024-03-22T02:45:46;347.52;;;74.25;;
23995;SDS011;12207;50.076;8.848;2024-03-22T02:48:12;354.92;;;75.10;;
23995;SDS011;12207;50.076;8.848;2024-03-22T02:50:38;355.75;;;76.28;;
23995;SDS011;12207;50.076;8.848;2024-03-22T02:53:05;356.65;;;75.35;;
23995;SDS011;12207;50.076;8.848;2024-03-22T02:55:38;358.08;;;76.85;;
23995;SDS011;12207;50.076;8.848;2024-03-22T03:00:31;365.77;;;76.80;;
23995;SDS011;12207;50.076;8.848;2024-03-22T03:03:04;349.35;;;75.07;;
23995;SDS011;12207;50.076;8.848;2024-03-22T03:05:30;360.83;;;77.40;;
23995;SDS011;12207;50.076;8.848;2024-03-22T03:07:57;366.35;;;76.03;;
23995;SDS011;12207;50.076;8.848;2024-03-22T03:10:23;343.45;;;74.53;;
23995;SDS011;12207;50.076;8.848;2024-03-22T03:12:49;354.63;;;76.53;;
23995;SDS011;12207;50.076;8.848;2024-03-22T03:15:15;348.70;;;76.05;;
23995;SDS011;12207;50.076;8.848;2024-03-22T03:17:42;366.88;;;76.82;;
23995;SDS011;12207;50.076;8.848;2024-03-22T03:20:11;350.98;;;75.90;;
23995;SDS011;12207;50.076;8.848;2024-03-22T03:22:38;354.92;;;75.88;;
23995;SDS011;12207;50.076;8.848;2024-03-22T03:25:05;362.90;;;76.13;;
23995;SDS011;12207;50.076;8.848;2024-03-22T03:27:32;380.73;;;77.60;;
23995;SDS011;12207;50.076;8.848;2024-03-22T03:29:58;346.80;;;75.03;;
23995;SDS011;12207;50.076;8.848;2024-03-22T03:32:24;359.65;;;76.00;;
23995;SDS011;12207;50.076;8.848;2024-03-22T03:34:51;369.27;;;76.90;;
23995;SDS011;12207;50.076;8.848;2024-03-22T03:37:17;366.45;;;77.13;;
23995;SDS011;12207;50.076;8.848;2024-03-22T03:39:43;361.73;;;76.90;;
23995;SDS011;12207;50.076;8.848;2024-03-22T03:42:09;355.88;;;75.45;;
23995;SDS011;12207;50.076;8.848;2024-03-22T03:44:36;373.55;;;77.53;;
23995;SDS011;12207;50.076;8.848;2024-03-22T03:47:02;356.45;;;76.13;;
23995;SDS011;12207;50.076;8.848;2024-03-22T03:49:28;351.45;;;74.50;;
23995;SDS011;12207;50.076;8.848;2024-03-22T03:51:54;349.73;;;74.82;;
23995;SDS011;12207;50.076;8.848;2024-03-22T03:54:20;356.85;;;75.55;;
23995;SDS011;12207;50.076;8.848;2024-03-22T03:56:47;344.05;;;73.63;;
23995;SDS011;12207;50.076;8.848;2024-03-22T03:59:16;362.02;;;76.13;;
23995;SDS011;12207;50.076;8.848;2024-03-22T04:01:42;351.95;;;75.38;;
23995;SDS011;12207;50.076;8.848;2024-03-22T04:04:08;353.95;;;75.70;;
23995;SDS011;12207;50.076;8.848;2024-03-22T04:06:34;352.48;;;74.80;;
23995;SDS011;12207;50.076;8.848;2024-03-22T04:09:00;362.20;;;75.43;;
23995;SDS011;12207;50.076;8.848;2024-03-22T04:11:27;359.20;;;75.60;;
23995;SDS011;12207;50.076;8.848;2024-03-22T04:13:54;354.27;;;75.40;;
23995;SDS011;12207;50.076;8.848;2024-03-22T04:16:22;352.48;;;75.13;;
23995;SDS011;12207;50.076;8.848;2024-03-22T04:18:49;348.08;;;75.72;;
23995;SDS011;12207;50.076;8.848;2024-03-22T04:21:15;355.65;;;75.82;;
23995;SDS011;12207;50.076;8.848;2024-03-22T04:23:41;352.88;;;74.95;;
23995;SDS011;12207;50.076;8.848;2024-03-22T04:26:07;341.33;;;74.47;;
23995;SDS011;12207;50.076;8.848;2024-03-22T04:28:33;339.42;;;74.78;;
23995;SDS011;12207;50.076;8.848;2024-03-22T04:31:02;352.42;;;75.30;;
23995;SDS011;12207;50.076;8.848;2024-03-22T04:33:30;348.17;;;74.72;;
23995;SDS011;12207;50.076;8.848;2024-03-22T04:35:57;348.92;;;75.20;;
23995;SDS011;12207;50.076;8.848;2024-03-22T04:38:25;352.98;;;75.00;;
23995;SDS011;12207;50.076;8.848;2024-03-22T04:40:51;352.45;;;75.18;;
23995;SDS011;12207;50.076;8.848;2024-03-22T04:43:18;354.73;;;75.38;;
23995;SDS011;12207;50.076;8.848;2024-03-22T04:45:45;369.55;;;76.03;;
23995;SDS011;12207;50.076;8.848;2024-03-22T04:48:13;359.13;;;76.43;;
23995;SDS011;12207;50.076;8.848;2024-03-22T04:50:41;348.55;;;74.50;;
23995;SDS011;12207;50.076;8.848;2024-03-22T04:53:07;351.02;;;74.53;;
23995;SDS011;12207;50.076;8.848;2024-03-22T04:55:33;344.70;;;74.10;;
23995;SDS011;12207;50.076;8.848;2024-03-22T04:58:00;336.65;;;72.95;;
23995;SDS011;12207;50.076;8.848;2024-03-22T05:00:26;356.83;;;76.05;;
23995;SDS011;12207;50.076;8.848;2024-03-22T05:02:53;346.40;;;75.07;;
23995;SDS011;12207;50.076;8.848;2024-03-22T05:05:19;337.88;;;73.82;;
23995;SDS011;12207;50.076;8.848;2024-03-22T05:07:46;350.85;;;75.03;;
23995;SDS011;12207;50.076;8.848;2024-03-22T05:10:12;336.75;;;73.47;;
23995;SDS011;12207;50.076;8.848;2024-03-22T05:12:38;338.90;;;73.57;;
23995;SDS011;12207;50.076;8.848;2024-03-22T05:15:05;346.55;;;75.18;;
23995;SDS011;12207;50.076;8.848;2024-03-22T05:17:32;344.92;;;74.38;;
23995;SDS011;12207;50.076;8.848;2024-03-22T05:19:58;359.08;;;75.43;;
23995;SDS011;12207;50.076;8.848;2024-03-22T05:22:24;373.23;;;77.30;;
23995;SDS011;12207;50.076;8.848;2024-03-22T05:24:51;368.83;;;76.90;;
23995;SDS011;12207;50.076;8.848;2024-03-22T05:27:17;359.98;;;76.35;;
23995;SDS011;12207;50.076;8.848;2024-03-22T05:29:43;361.25;;;77.32;;
23995;SDS011;12207;50.076;8.848;2024-03-22T05:32:09;340.77;;;74.53;;
23995;SDS011;12207;50.076;8.848;2024-03-22T05:34:36;352.02;;;75.93;;
23995;SDS011;12207;50.076;8.848;2024-03-22T05:37:02;352.98;;;75.15;;
23995;SDS011;12207;50.076;8.848;2024-03-22T05:39:28;344.33;;;75.43;;
23995;SDS011;12207;50.076;8.848;2024-03-22T05:41:55;344.65;;;75.90;;
23995;SDS011;12207;50.076;8.848;2024-03-22T05:44:21;352.90;;;76.50;;
23995;SDS011;12207;50.076;8.848;2024-03-22T05:46:47;369.25;;;78.18;;
23995;SDS011;12207;50.076;8.848;2024-03-22T05:49:14;352.10;;;75.22;;
23995;SDS011;12207;50.076;8.848;2024-03-22T05:51:40;340.77;;;74.95;;
23995;SDS011;12207;50.076;8.848;2024-03-22T05:54:06;380.10;;;77.63;;
23995;SDS011;12207;50.076;8.848;2024-03-22T05:56:32;345.42;;;75.25;;
23995;SDS011;12207;50.076;8.848;2024-03-22T05:58:58;378.48;;;79.28;;
23995;SDS011;12207;50.076;8.848;2024-03-22T06:01:25;378.27;;;79.10;;
23995;SDS011;12207;50.076;8.848;2024-03-22T06:03:51;352.10;;;76.72;;
23995;SDS011;12207;50.076;8.848;2024-03-22T06:06:17;358.50;;;76.78;;
23995;SDS011;12207;50.076;8.848;2024-03-22T06:08:43;359.52;;;76.90;;
23995;SDS011;12207;50.076;8.848;2024-03-22T06:11:10;358.75;;;77.15;;
23995;SDS011;12207;50.076;8.848;2024-03-22T06:13:36;358.42;;;77.50;;
23995;SDS011;12207;50.076;8.848;2024-03-22T06:16:03;365.65;;;78.28;;
23995;SDS011;12207;50.076;8.848;2024-03-22T06:18:29;356.02;;;78.22;;
23995;SDS011;12207;50.076;8.848;2024-03-22T06:20:55;364.67;;;78.75;;
23995;SDS011;12207;50.076;8.848;2024-03-22T06:23:21;372.80;;;78.43;;
23995;SDS011;12207;50.076;8.848;2024-03-22T06:25:54;359.38;;;77.10;;
23995;SDS011;12207;50.076;8.848;2024-03-22T06:28:21;372.67;;;79.45;;
23995;SDS011;12207;50.076;8.848;2024-03-22T06:30:47;371.98;;;79.40;;
23995;SDS011;12207;50.076;8.848;2024-03-22T06:33:14;359.27;;;77.97;;
23995;SDS011;12207;50.076;8.848;2024-03-22T06:35:41;375.10;;;80.13;;
23995;SDS011;12207;50.076;8.848;2024-03-22T06:38:07;374.77;;;80.93;;
23995;SDS011;12207;50.076;8.848;2024-03-22T06:40:34;361.45;;;79.93;;
23995;SDS011;12207;50.076;8.848;2024-03-22T06:43:00;372.20;;;81.65;;
23995;SDS011;12207;50.076;8.848;2024-03-22T06:45:26;386.65;;;83.05;;
23995;SDS011;12207;50.076;8.848;2024-03-22T06:47:52;376.23;;;81.07;;
23995;SDS011;12207;50.076;8.848;2024-03-22T06:50:19;382.30;;;83.80;;
23995;SDS011;12207;50.076;8.848;2024-03-22T06:52:49;368.52;;;81.97;;
23995;SDS011;12207;50.076;8.848;2024-03-22T06:55:16;371.17;;;81.28;;
23995;SDS011;12207;50.076;8.848;2024-03-22T06:57:43;366.42;;;80.82;;
23995;SDS011;12207;50.076;8.848;2024-03-22T07:00:11;378.10;;;83.47;;
23995;SDS011;12207;50.076;8.848;2024-03-22T07:02:38;377.08;;;81.47;;
23995;SDS011;12207;50.076;8.848;2024-03-22T07:05:05;377.58;;;81.50;;
23995;SDS011;12207;50.076;8.848;2024-03-22T07:07:32;376.25;;;83.65;;
23995;SDS011;12207;50.076;8.848;2024-03-22T07:09:59;352.63;;;80.32;;
23995;SDS011;12207;50.076;8.848;2024-03-22T07:12:25;375.67;;;82.90;;
23995;SDS011;12207;50.076;8.848;2024-03-22T07:14:51;383.10;;;83.43;;
23995;SDS011;12207;50.076;8.848;2024-03-22T07:17:17;388.27;;;83.97;;
23995;SDS011;12207;50.076;8.848;2024-03-22T07:19:48;405.63;;;85.40;;
23995;SDS011;12207;50.076;8.848;2024-03-22T07:22:18;404.00;;;86.65;;
23995;SDS011;12207;50.076;8.848;2024-03-22T07:24:44;391.40;;;83.97;;
23995;SDS011;12207;50.076;8.848;2024-03-22T07:27:12;373.20;;;81.25;;
23995;SDS011;12207;50.076;8.848;2024-03-22T07:29:41;376.45;;;82.47;;
23995;SDS011;12207;50.076;8.848;2024-03-22T07:32:08;357.35;;;80.68;;
23995;SDS011;12207;50.076;8.848;2024-03-22T07:34:35;380.95;;;83.63;;
23995;SDS011;12207;50.076;8.848;2024-03-22T07:37:03;364.00;;;81.38;;
23995;SDS011;12207;50.076;8.848;2024-03-22T07:39:30;364.73;;;82.22;;
23995;SDS011;12207;50.076;8.848;2024-03-22T07:41:56;368.83;;;82.32;;
23995;SDS011;12207;50.076;8.848;2024-03-22T07:44:24;387.67;;;84.57;;
23995;SDS011;12207;50.076;8.848;2024-03-22T07:46:53;378.58;;;83.10;;
23995;SDS011;12207;50.076;8.848;2024-03-22T07:49:20;373.60;;;81.25;;
23995;SDS011;12207;50.076;8.848;2024-03-22T07:51:46;388.02;;;84.13;;
23995;SDS011;12207;50.076;8.848;2024-03-22T07:54:12;364.35;;;79.45;;
23995;SDS011;12207;50.076;8.848;2024-03-22T07:56:38;363.08;;;79.60;;
23995;SDS011;12207;50.076;8.848;2024-03-22T07:59:04;375.60;;;82.30;;
23995;SDS011;12207;50.076;8.848;2024-03-22T08:01:30;366.70;;;82.25;;
23995;SDS011;12207;50.076;8.848;2024-03-22T08:03:56;364.65;;;81.82;;
23995;SDS011;12207;50.076;8.848;2024-03-22T08:06:26;376.38;;;86.38;;
23995;SDS011;12207;50.076;8.848;2024-03-22T08:08:52;378.25;;;83.72;;
23995;SDS011;12207;50.076;8.848;2024-03-22T08:11:18;373.92;;;83.53;;
23995;SDS011;12207;50.076;8.848;2024-03-22T08:13:44;392.27;;;86.93;;
23995;SDS011;12207;50.076;8.848;2024-03-22T08:16:11;365.95;;;81.38;;
23995;SDS011;12207;50.076;8.848;2024-03-22T08:18:37;375.02;;;84.45;;
23995;SDS011;12207;50.076;8.848;2024-03-22T08:21:07;384.52;;;83.90;;
23995;SDS011;12207;50.076;8.848;2024-03-22T08:23:33;366.45;;;83.28;;
23995;SDS011;12207;50.076;8.848;2024-03-22T08:25:59;373.38;;;83.68;;
23995;SDS011;12207;50.076;8.848;2024-03-22T08:28:25;385.25;;;83.47;;
23995;SDS011;12207;50.076;8.848;2024-03-22T08:30:52;376.85;;;86.40;;
23995;SDS011;12207;50.076;8.848;2024-03-22T08:33:18;368.13;;;84.32;;
23995;SDS011;12207;50.076;8.848;2024-03-22T08:35:44;403.73;;;86.82;;
23995;SDS011;12207;50.076;8.848;2024-03-22T08:38:10;384.65;;;84.18;;
23995;SDS011;12207;50.076;8.848;2024-03-22T08:40:39;389.42;;;85.35;;
23995;SDS011;12207;50.076;8.848;2024-03-22T08:43:06;385.25;;;84.47;;
23995;SDS011;12207;50.076;8.848;2024-03-22T08:45:32;379.92;;;83.60;;
23995;SDS011;12207;50.076;8.848;2024-03-22T08:47:58;382.20;;;84.25;;
23995;SDS011;12207;50.076;8.848;2024-03-22T08:50:25;383.55;;;83.93;;
23995;SDS011;12207;50.076;8.848;2024-03-22T08:52:51;396.02;;;86.07;;
23995;SDS011;12207;50.076;8.848;2024-03-22T08:55:17;379.20;;;84.32;;
23995;SDS011;12207;50.076;8.848;2024-03-22T08:57:43;378.88;;;87.93;;
23995;SDS011;12207;50.076;8.848;2024-03-22T09:00:10;377.13;;;84.72;;
23995;SDS011;12207;50.076;8.848;2024-03-22T09:02:36;383.08;;;84.20;;
23995;SDS011;12207;50.076;8.848;2024-03-22T09:05:03;392.75;;;86.10;;
23995;SDS011;12207;50.076;8.848;2024-03-22T09:07:31;383.85;;;85.22;;
23995;SDS011;12207;50.076;8.848;2024-03-22T09:09:57;385.83;;;87.72;;
23995;SDS011;12207;50.076;8.848;2024-03-22T09:12:23;394.10;;;88.03;;
23995;SDS011;12207;50.076;8.848;2024-03-22T09:14:49;388.67;;;86.00;;
23995;SDS011;12207;50.076;8.848;2024-03-22T09:17:15;391.73;;;87.88;;
23995;SDS011;12207;50.076;8.848;2024-03-22T09:19:47;382.90;;;86.57;;
23995;SDS011;12207;50.076;8.848;2024-03-22T09:22:13;400.63;;;89.05;;
23995;SDS011;12207;50.076;8.848;2024-03-22T09:24:40;397.40;;;89.32;;
23995;SDS011;12207;50.076;8.848;2024-03-22T09:27:06;397.73;;;88.57;;
23995;SDS011;12207;50.076;8.848;2024-03-22T09:29:35;416.30;;;91.10;;
23995;SDS011;12207;50.076;8.848;2024-03-22T09:32:02;408.48;;;92.28;;
23995;SDS011;12207;50.076;8.848;2024-03-22T09:34:28;402.05;;;89.82;;
23995;SDS011;12207;50.076;8.848;2024-03-22T09:36:55;422.38;;;94.38;;
23995;SDS011;12207;50.076;8.848;2024-03-22T09:39:21;390.58;;;90.20;;
23995;SDS011;12207;50.076;8.848;2024-03-22T09:41:47;391.95;;;91.13;;
23995;SDS011;12207;50.076;8.848;2024-03-22T09:44:16;414.13;;;95.57;;
23995;SDS011;12207;50.076;8.848;2024-03-22T09:46:47;410.25;;;94.15;;
23995;SDS011;12207;50.076;8.848;2024-03-22T09:49:15;408.63;;;95.45;;
23995;SDS011;12207;50.076;8.848;2024-03-22T09:51:44;413.23;;;95.60;;
23995;SDS011;12207;50.076;8.848;2024-03-22T09:54:10;405.67;;;94.65;;
23995;SDS011;12207;50.076;8.848;2024-03-22T09:56:40;403.10;;;94.70;;
23995;SDS011;12207;50.076;8.848;2024-03-22T09:59:07;417.27;;;95.70;;
23995;SDS011;12207;50.076;8.848;2024-03-22T10:01:36;403.13;;;94.70;;
23995;SDS011;12207;50.076;8.848;2024-03-22T10:04:04;401.73;;;94.57;;
23995;SDS011;12207;50.076;8.848;2024-03-22T10:06:30;398.35;;;92.63;;
23995;SDS011;12207;50.076;8.848;2024-03-22T10:08:59;401.00;;;95.20;;
23995;SDS011;12207;50.076;8.848;2024-03-22T10:11:26;399.95;;;95.28;;
23995;SDS011;12207;50.076;8.848;2024-03-22T10:13:52;408.67;;;94.88;;
23995;SDS011;12207;50.076;8.848;2024-03-22T10:16:20;384.15;;;90.90;;
23995;SDS011;12207;50.076;8.848;2024-03-22T10:18:46;387.33;;;94.10;;
23995;SDS011;12207;50.076;8.848;2024-03-22T10:21:16;407.13;;;95.55;;
23995;SDS011;12207;50.076;8.848;2024-03-22T10:23:46;397.58;;;96.88;;
23995;SDS011;12207;50.076;8.848;2024-03-22T10:26:13;397.02;;;94.60;;
23995;SDS011;12207;50.076;8.848;2024-03-22T10:28:46;408.80;;;95.93;;
23995;SDS011;12207;50.076;8.848;2024-03-22T10:31:13;412.55;;;97.85;;
23995;SDS011;12207;50.076;8.848;2024-03-22T10:33:43;406.45;;;95.35;;
23995;SDS011;12207;50.076;8.848;2024-03-22T10:36:10;404.30;;;98.05;;
23995;SDS011;12207;50.076;8.848;2024-03-22T10:38:38;424.60;;;98.00;;
23995;SDS011;12207;50.076;8.848;2024-03-22T10:41:04;435.45;;;100.75;;
23995;SDS011;12207;50.076;8.848;2024-03-22T10:43:31;402.65;;;99.97;;
23995;SDS011;12207;50.076;8.848;2024-03-22T10:45:59;419.23;;;98.47;;
23995;SDS011;12207;50.076;8.848;2024-03-22T10:48:31;429.27;;;100.05;;
23995;SDS011;12207;50.076;8.848;2024-03-22T10:50:59;393.00;;;97.65;;
23995;SDS011;12207;50.076;8.848;2024-03-22T10:53:26;407.02;;;97.97;;
23995;SDS011;12207;50.076;8.848;2024-03-22T10:55:56;400.38;;;97.57;;
23995;SDS011;12207;50.076;8.848;2024-03-22T10:58:25;394.50;;;98.60;;
23995;SDS011;12207;50.076;8.848;2024-03-22T11:00:51;419.40;;;100.68;;
23995;SDS011;12207;50.076;8.848;2024-03-22T11:03:24;416.38;;;100.40;;
23995;SDS011;12207;50.076;8.848;2024-03-22T11:05:55;429.13;;;103.90;;
23995;SDS011;12207;50.076;8.848;2024-03-22T11:08:29;417.00;;;101.93;;
23995;SDS011;12207;50.076;8.848;2024-03-22T11:11:08;415.20;;;102.40;;
23995;SDS011;12207;50.076;8.848;2024-03-22T11:13:36;405.13;;;98.78;;
23995;SDS011;12207;50.076;8.848;2024-03-22T11:16:05;403.33;;;99.03;;
23995;SDS011;12207;50.076;8.848;2024-03-22T11:18:32;391.95;;;99.35;;
23995;SDS011;12207;50.076;8.848;2024-03-22T11:20:59;427.38;;;103.15;;
23995;SDS011;12207;50.076;8.848;2024-03-22T11:23:25;438.67;;;102.93;;
23995;SDS011;12207;50.076;8.848;2024-03-22T11:25:51;428.95;;;103.00;;
23995;SDS011;12207;50.076;8.848;2024-03-22T11:28:17;414.55;;;98.97;;
23995;SDS011;12207;50.076;8.848;2024-03-22T11:30:44;408.98;;;98.88;;
23995;SDS011;12207;50.076;8.848;2024-03-22T11:33:10;413.33;;;99.95;;
23995;SDS011;12207;50.076;8.848;2024-03-22T11:35:37;397.73;;;96.97;;
23995;SDS011;12207;50.076;8.848;2024-03-22T11:38:08;419.00;;;100.22;;
23995;SDS011;12207;50.076;8.848;2024-03-22T11:40:34;398.08;;;100.78;;
23995;SDS011;12207;50.076;8.848;2024-03-22T11:43:00;395.05;;;100.85;;
23995;SDS011;12207;50.076;8.848;2024-03-22T11:45:30;397.90;;;97.82;;
23995;SDS011;12207;50.076;8.848;2024-03-22T11:48:01;401.25;;;98.68;;
23995;SDS011;12207;50.076;8.848;2024-03-22T11:50:28;404.33;;;98.47;;
23995;SDS011;12207;50.076;8.848;2024-03-22T11:52:57;390.90;;;97.65;;
23995;SDS011;12207;50.076;8.848;2024-03-22T11:55:26;397.27;;;99.22;;
23995;SDS011;12207;50.076;8.848;2024-03-22T11:57:57;412.40;;;102.22;;
23995;SDS011;12207;50.076;8.848;2024-03-22T12:00:23;396.10;;;100.45;;
23995;SDS011;12207;50.076;8.848;2024-03-22T12:02:50;378.30;;;96.45;;
23995;SDS011;12207;50.076;8.848;2024-03-22T12:05:17;398.17;;;98.25;;
23995;SDS011;12207;50.076;8.848;2024-03-22T12:07:44;394.15;;;98.78;;
23995;SDS011;12207;50.076;8.848;2024-03-22T12:10:10;387.83;;;98.25;;
23995;SDS011;12207;50.076;8.848;2024-03-22T12:12:37;421.55;;;103.57;;
23995;SDS011;12207;50.076;8.848;2024-03-22T12:15:03;400.85;;;99.97;;
23995;SDS011;12207;50.076;8.848;2024-03-22T12:17:32;399.58;;;99.22;;
23995;SDS011;12207;50.076;8.848;2024-03-22T12:20:01;399.10;;;97.63;;
23995;SDS011;12207;50.076;8.848;2024-03-22T12:22:30;403.05;;;99.30;;
23995;SDS011;12207;50.076;8.848;2024-03-22T12:24:56;404.05;;;101.45;;
23995;SDS011;12207;50.076;8.848;2024-03-22T12:27:25;404.42;;;102.22;;
23995;SDS011;12207;50.076;8.848;2024-03-22T12:29:51;386.13;;;97.93;;
23995;SDS011;12207;50.076;8.848;2024-03-22T12:32:17;401.63;;;100.72;;
23995;SDS011;12207;50.076;8.848;2024-03-22T12:34:43;405.15;;;101.97;;
23995;SDS011;12207;50.076;8.848;2024-03-22T12:37:09;380.83;;;101.13;;
23995;SDS011;12207;50.076;8.848;2024-03-22T12:39:35;396.88;;;100.38;;
23995;SDS011;12207;50.076;8.848;2024-03-22T12:42:02;410.67;;;102.57;;
23995;SDS011;12207;50.076;8.848;2024-03-22T12:44:28;387.60;;;98.53;;
23995;SDS011;12207;50.076;8.848;2024-03-22T12:46:54;395.20;;;101.22;;
23995;SDS011;12207;50.076;8.848;2024-03-22T12:49:21;403.27;;;102.63;;
23995;SDS011;12207;50.076;8.848;2024-03-22T12:51:47;401.13;;;100.70;;
23995;SDS011;12207;50.076;8.848;2024-03-22T12:54:13;405.73;;;101.20;;
23995;SDS011;12207;50.076;8.848;2024-03-22T12:56:43;407.23;;;104.78;;
23995;SDS011;12207;50.076;8.848;2024-03-22T12:59:10;403.42;;;101.00;;
23995;SDS011;12207;50.076;8.848;2024-03-22T13:01:36;398.65;;;101.13;;
23995;SDS011;12207;50.076;8.848;2024-03-22T13:04:03;390.15;;;100.20;;
23995;SDS011;12207;50.076;8.848;2024-03-22T13:06:29;398.85;;;103.18;;
23995;SDS011;12207;50.076;8.848;2024-03-22T13:08:55;394.98;;;103.32;;
23995;SDS011;12207;50.076;8.848;2024-03-22T13:11:22;394.13;;;99.78;;
23995;SDS011;12207;50.076;8.848;2024-03-22T13:13:48;395.35;;;99.97;;
23995;SDS011;12207;50.076;8.848;2024-03-22T13:16:14;393.08;;;101.90;;
23995;SDS011;12207;50.076;8.848;2024-03-22T13:18:41;397.25;;;101.63;;
23995;SDS011;12207;50.076;8.848;2024-03-22T13:21:07;404.90;;;102.18;;
23995;SDS011;12207;50.076;8.848;2024-03-22T13:23:34;406.92;;;100.78;;
23995;SDS011;12207;50.076;8.848;2024-03-22T13:26:04;400.30;;;100.47;;
23995;SDS011;12207;50.076;8.848;2024-03-22T13:28:31;401.95;;;101.38;;
23995;SDS011;12207;50.076;8.848;2024-03-22T13:31:04;401.10;;;101.18;;
23995;SDS011;12207;50.076;8.848;2024-03-22T13:33:33;423.02;;;104.10;;
23995;SDS011;12207;50.076;8.848;2024-03-22T13:36:03;408.50;;;102.78;;
23995;SDS011;12207;50.076;8.848;2024-03-22T13:38:30;401.38;;;101.93;;
23995;SDS011;12207;50.076;8.848;2024-03-22T13:40:57;417.17;;;103.22;;
23995;SDS011;12207;50.076;8.848;2024-03-22T13:43:25;408.92;;;103.35;;
23995;SDS011;12207;50.076;8.848;2024-03-22T13:45:54;393.38;;;102.95;;
23995;SDS011;12207;50.076;8.848;2024-03-22T13:48:24;423.60;;;108.22;;
23995;SDS011;12207;50.076;8.848;2024-03-22T13:50:51;402.58;;;105.10;;
23995;SDS011;12207;50.076;8.848;2024-03-22T13:53:20;415.98;;;105.05;;
23995;SDS011;12207;50.076;8.848;2024-03-22T13:55:49;414.00;;;106.28;;
23995;SDS011;12207;50.076;8.848;2024-03-22T13:58:21;410.55;;;106.45;;
23995;SDS011;12207;50.076;8.848;2024-03-22T14:00:47;393.65;;;100.70;;
23995;SDS011;12207;50.076;8.848;2024-03-22T14:03:13;401.10;;;102.43;;
23995;SDS011;12207;50.076;8.848;2024-03-22T14:05:39;423.33;;;103.57;;
23995;SDS011;12207;50.076;8.848;2024-03-22T14:08:05;382.45;;;97.47;;